sensor_id;sensor_type;location;lat;lon;timestamp;temperature;humidity
49042;DHT22;34859;51.608;11.462;2022-09-30T00:22:27;5.40;99.90
49042;DHT22;34859;51.608;11.462;2022-09-30T00:26:16;5.30;99.90
49042;DHT22;34859;51.608;11.462;2022-09-30T02:50:17;4.90;99.90
49042;DHT22;34859;51.608;11.462;2022-09-30T02:59:05;4.80;99.90
49042;DHT22;34859;51.608;11.462;2022-09-30T03:01:49;4.70;99.90
49042;DHT22;34859;51.608;11.462;2022-09-30T03:04:34;4.70;99.90
49042;DHT22;34859;51.608;11.462;2022-09-30T03:07:21;4.70;99.90
49042;DHT22;34859;51.608;11.462;2022-09-30T03:10:14;4.70;99.90
49042;DHT22;34859;51.608;11.462;2022-09-30T03:13:02;4.70;99.90
49042;DHT22;34859;51.608;11.462;2022-09-30T03:16:35;4.60;99.90
49042;DHT22;34859;51.608;11.462;2022-09-30T03:25:34;4.50;99.90
49042;DHT22;34859;51.608;11.462;2022-09-30T03:28:32;4.50;99.90
49042;DHT22;34859;51.608;11.462;2022-09-30T03:37:06;4.30;99.90
49042;DHT22;34859;51.608;11.462;2022-09-30T03:40:04;4.30;99.90
49042;DHT22;34859;51.608;11.462;2022-09-30T03:42:59;4.30;99.90
49042;DHT22;34859;51.608;11.462;2022-09-30T03:48:54;4.20;99.90
49042;DHT22;34859;51.608;11.462;2022-09-30T03:51:41;4.10;99.90
49042;DHT22;34859;51.608;11.462;2022-09-30T03:54:25;4.10;99.90
49042;DHT22;34859;51.608;11.462;2022-09-30T03:57:09;4.10;99.90
49042;DHT22;34859;51.608;11.462;2022-09-30T03:59:57;4.20;99.90
49042;DHT22;34859;51.608;11.462;2022-09-30T04:02:42;4.10;99.90
49042;DHT22;34859;51.608;11.462;2022-09-30T04:05:26;4.20;99.90
49042;DHT22;34859;51.608;11.462;2022-09-30T04:08:10;4.20;99.90
49042;DHT22;34859;51.608;11.462;2022-09-30T04:10:54;4.20;99.90
49042;DHT22;34859;51.608;11.462;2022-09-30T04:13:38;4.10;99.90
49042;DHT22;34859;51.608;11.462;2022-09-30T04:16:23;4.10;99.90
49042;DHT22;34859;51.608;11.462;2022-09-30T04:19:07;4.10;99.90
49042;DHT22;34859;51.608;11.462;2022-09-30T04:21:52;4.10;99.90
49042;DHT22;34859;51.608;11.462;2022-09-30T04:24:36;4.10;99.90
49042;DHT22;34859;51.608;11.462;2022-09-30T04:27:22;4.10;99.90
49042;DHT22;34859;51.608;11.462;2022-09-30T04:30:06;4.10;99.90
49042;DHT22;34859;51.608;11.462;2022-09-30T04:32:50;4.10;99.90
49042;DHT22;34859;51.608;11.462;2022-09-30T04:35:36;4.10;99.90
49042;DHT22;34859;51.608;11.462;2022-09-30T04:38:20;4.10;99.90
49042;DHT22;34859;51.608;11.462;2022-09-30T04:41:05;4.10;99.90
49042;DHT22;34859;51.608;11.462;2022-09-30T04:43:50;4.00;99.90
49042;DHT22;34859;51.608;11.462;2022-09-30T04:46:35;4.00;99.90
49042;DHT22;34859;51.608;11.462;2022-09-30T04:49:19;4.00;99.90
49042;DHT22;34859;51.608;11.462;2022-09-30T04:52:01;4.00;99.90
49042;DHT22;34859;51.608;11.462;2022-09-30T04:54:45;4.00;99.90
49042;DHT22;34859;51.608;11.462;2022-09-30T04:57:29;4.00;99.90
49042;DHT22;34859;51.608;11.462;2022-09-30T05:00:13;4.00;99.90
49042;DHT22;34859;51.608;11.462;2022-09-30T05:02:57;3.90;99.90
49042;DHT22;34859;51.608;11.462;2022-09-30T05:05:42;4.00;99.90
49042;DHT22;34859;51.608;11.462;2022-09-30T05:08:26;3.90;99.90
49042;DHT22;34859;51.608;11.462;2022-09-30T05:11:15;3.90;99.90
49042;DHT22;34859;51.608;11.462;2022-09-30T05:14:00;3.90;99.90
49042;DHT22;34859;51.608;11.462;2022-09-30T05:16:44;3.90;99.90
49042;DHT22;34859;51.608;11.462;2022-09-30T05:19:28;3.80;99.90
49042;DHT22;34859;51.608;11.462;2022-09-30T05:22:13;3.90;99.90
49042;DHT22;34859;51.608;11.462;2022-09-30T05:24:57;3.90;99.90
49042;DHT22;34859;51.608;11.462;2022-09-30T05:27:41;3.90;99.90
49042;DHT22;34859;51.608;11.462;2022-09-30T05:30:26;3.90;99.90
49042;DHT22;34859;51.608;11.462;2022-09-30T05:33:11;3.90;99.90
49042;DHT22;34859;51.608;11.462;2022-09-30T05:36:05;3.90;99.90
49042;DHT22;34859;51.608;11.462;2022-09-30T05:38:50;3.90;99.90
49042;DHT22;34859;51.608;11.462;2022-09-30T05:41:34;3.90;99.90
49042;DHT22;34859;51.608;11.462;2022-09-30T05:44:19;3.90;99.90
49042;DHT22;34859;51.608;11.462;2022-09-30T05:47:04;3.90;99.90
49042;DHT22;34859;51.608;11.462;2022-09-30T05:49:48;3.90;99.90
49042;DHT22;34859;51.608;11.462;2022-09-30T05:52:29;3.90;99.90
49042;DHT22;34859;51.608;11.462;2022-09-30T05:55:14;3.90;99.90
49042;DHT22;34859;51.608;11.462;2022-09-30T05:57:58;4.00;99.90
49042;DHT22;34859;51.608;11.462;2022-09-30T06:00:44;4.00;99.90
49042;DHT22;34859;51.608;11.462;2022-09-30T06:03:29;4.00;99.90
49042;DHT22;34859;51.608;11.462;2022-09-30T06:06:14;4.10;99.90
49042;DHT22;34859;51.608;11.462;2022-09-30T06:09:00;4.10;99.90
49042;DHT22;34859;51.608;11.462;2022-09-30T06:11:44;4.20;99.90
49042;DHT22;34859;51.608;11.462;2022-09-30T06:14:28;4.20;99.90
49042;DHT22;34859;51.608;11.462;2022-09-30T06:17:13;4.40;99.90
49042;DHT22;34859;51.608;11.462;2022-09-30T06:19:57;4.40;99.90
49042;DHT22;34859;51.608;11.462;2022-09-30T06:22:41;4.40;99.90
49042;DHT22;34859;51.608;11.462;2022-09-30T06:25:28;4.50;99.90
49042;DHT22;34859;51.608;11.462;2022-09-30T06:28:12;4.50;99.90
49042;DHT22;34859;51.608;11.462;2022-09-30T06:30:56;4.60;99.90
49042;DHT22;34859;51.608;11.462;2022-09-30T06:33:40;4.60;99.90
49042;DHT22;34859;51.608;11.462;2022-09-30T06:36:25;4.70;99.90
49042;DHT22;34859;51.608;11.462;2022-09-30T06:39:08;4.80;99.90
49042;DHT22;34859;51.608;11.462;2022-09-30T06:41:52;4.90;99.90
49042;DHT22;34859;51.608;11.462;2022-09-30T06:44:37;5.00;99.90
49042;DHT22;34859;51.608;11.462;2022-09-30T06:47:21;5.10;99.90
49042;DHT22;34859;51.608;11.462;2022-09-30T06:50:05;5.10;99.90
49042;DHT22;34859;51.608;11.462;2022-09-30T06:52:50;5.20;99.90
49042;DHT22;34859;51.608;11.462;2022-09-30T06:55:35;5.30;99.90
49042;DHT22;34859;51.608;11.462;2022-09-30T06:58:22;5.40;99.90
49042;DHT22;34859;51.608;11.462;2022-09-30T07:01:07;5.50;99.90
49042;DHT22;34859;51.608;11.462;2022-09-30T07:03:51;5.60;99.90
49042;DHT22;34859;51.608;11.462;2022-09-30T07:06:41;5.70;99.90
49042;DHT22;34859;51.608;11.462;2022-09-30T07:09:22;5.80;99.90
49042;DHT22;34859;51.608;11.462;2022-09-30T07:12:07;5.90;99.90
49042;DHT22;34859;51.608;11.462;2022-09-30T07:14:51;6.00;99.90
49042;DHT22;34859;51.608;11.462;2022-09-30T07:17:36;6.00;99.90
49042;DHT22;34859;51.608;11.462;2022-09-30T07:20:20;6.10;99.90
49042;DHT22;34859;51.608;11.462;2022-09-30T07:23:04;6.20;99.90
49042;DHT22;34859;51.608;11.462;2022-09-30T07:25:50;6.30;99.90
49042;DHT22;34859;51.608;11.462;2022-09-30T07:28:35;6.40;99.90
49042;DHT22;34859;51.608;11.462;2022-09-30T07:31:22;6.50;99.90
49042;DHT22;34859;51.608;11.462;2022-09-30T07:34:08;6.60;99.90
49042;DHT22;34859;51.608;11.462;2022-09-30T07:36:52;6.70;99.90
49042;DHT22;34859;51.608;11.462;2022-09-30T07:39:37;6.80;99.90
49042;DHT22;34859;51.608;11.462;2022-09-30T07:42:21;7.00;99.90
49042;DHT22;34859;51.608;11.462;2022-09-30T07:45:06;7.10;99.90
49042;DHT22;34859;51.608;11.462;2022-09-30T07:47:51;7.20;99.90
49042;DHT22;34859;51.608;11.462;2022-09-30T07:50:35;7.30;99.90
49042;DHT22;34859;51.608;11.462;2022-09-30T07:53:19;7.40;99.90
49042;DHT22;34859;51.608;11.462;2022-09-30T07:56:05;7.50;99.90
49042;DHT22;34859;51.608;11.462;2022-09-30T07:58:57;7.70;99.90
49042;DHT22;34859;51.608;11.462;2022-09-30T08:01:43;7.80;99.90
49042;DHT22;34859;51.608;11.462;2022-09-30T08:04:28;8.00;99.90
49042;DHT22;34859;51.608;11.462;2022-09-30T08:07:13;8.10;99.90
49042;DHT22;34859;51.608;11.462;2022-09-30T08:09:58;8.20;99.90
49042;DHT22;34859;51.608;11.462;2022-09-30T08:12:42;8.40;99.90
49042;DHT22;34859;51.608;11.462;2022-09-30T08:15:26;8.60;99.90
49042;DHT22;34859;51.608;11.462;2022-09-30T08:18:11;8.60;99.90
49042;DHT22;34859;51.608;11.462;2022-09-30T08:20:55;8.80;99.90
49042;DHT22;34859;51.608;11.462;2022-09-30T08:23:40;9.00;99.90
49042;DHT22;34859;51.608;11.462;2022-09-30T08:26:24;9.20;99.90
49042;DHT22;34859;51.608;11.462;2022-09-30T08:29:09;9.30;99.90
49042;DHT22;34859;51.608;11.462;2022-09-30T08:31:57;9.40;99.90
49042;DHT22;34859;51.608;11.462;2022-09-30T08:34:41;9.60;99.90
49042;DHT22;34859;51.608;11.462;2022-09-30T08:37:25;9.90;99.90
49042;DHT22;34859;51.608;11.462;2022-09-30T08:40:23;10.10;99.90
49042;DHT22;34859;51.608;11.462;2022-09-30T08:43:17;10.20;99.90
49042;DHT22;34859;51.608;11.462;2022-09-30T08:48:52;10.50;99.90
49042;DHT22;34859;51.608;11.462;2022-09-30T08:51:47;10.70;99.90
49042;DHT22;34859;51.608;11.462;2022-09-30T08:54:34;10.90;99.90
49042;DHT22;34859;51.608;11.462;2022-09-30T08:57:19;11.00;99.90
49042;DHT22;34859;51.608;11.462;2022-09-30T09:00:06;11.10;99.90
49042;DHT22;34859;51.608;11.462;2022-09-30T09:02:55;11.20;99.90
49042;DHT22;34859;51.608;11.462;2022-09-30T09:06:25;11.30;99.90
49042;DHT22;34859;51.608;11.462;2022-09-30T09:09:38;11.50;99.90
49042;DHT22;34859;51.608;11.462;2022-09-30T09:15:27;11.80;99.90
49042;DHT22;34859;51.608;11.462;2022-09-30T09:24:18;12.10;99.90
49042;DHT22;34859;51.608;11.462;2022-09-30T09:27:26;12.20;99.90
49042;DHT22;34859;51.608;11.462;2022-09-30T09:30:18;12.30;99.90
49042;DHT22;34859;51.608;11.462;2022-09-30T09:33:17;12.40;99.90
49042;DHT22;34859;51.608;11.462;2022-09-30T09:36:24;12.50;99.90
49042;DHT22;34859;51.608;11.462;2022-09-30T09:39:41;12.50;99.90
49042;DHT22;34859;51.608;11.462;2022-09-30T09:45:18;12.60;99.90
49042;DHT22;34859;51.608;11.462;2022-09-30T09:48:09;12.60;99.90
49042;DHT22;34859;51.608;11.462;2022-09-30T09:51:11;12.60;99.90
49042;DHT22;34859;51.608;11.462;2022-09-30T09:54:00;12.90;99.90
49042;DHT22;34859;51.608;11.462;2022-09-30T09:56:44;12.90;99.90
49042;DHT22;34859;51.608;11.462;2022-09-30T09:59:28;13.00;99.90
49042;DHT22;34859;51.608;11.462;2022-09-30T10:02:27;13.10;99.90
49042;DHT22;34859;51.608;11.462;2022-09-30T10:05:23;13.10;99.90
49042;DHT22;34859;51.608;11.462;2022-09-30T10:08:15;13.20;99.90
49042;DHT22;34859;51.608;11.462;2022-09-30T10:11:05;13.20;99.90
49042;DHT22;34859;51.608;11.462;2022-09-30T10:13:52;13.30;99.90
49042;DHT22;34859;51.608;11.462;2022-09-30T10:16:39;13.20;99.90
49042;DHT22;34859;51.608;11.462;2022-09-30T10:19:28;13.20;99.90
49042;DHT22;34859;51.608;11.462;2022-09-30T10:25:19;13.30;99.90
49042;DHT22;34859;51.608;11.462;2022-09-30T10:28:21;13.30;99.90
49042;DHT22;34859;51.608;11.462;2022-09-30T10:31:52;13.40;99.90
49042;DHT22;34859;51.608;11.462;2022-09-30T10:34:24;13.50;99.90
49042;DHT22;34859;51.608;11.462;2022-09-30T10:37:18;13.60;99.90
49042;DHT22;34859;51.608;11.462;2022-09-30T10:40:05;13.50;99.90
49042;DHT22;34859;51.608;11.462;2022-09-30T10:42:53;13.50;99.90
49042;DHT22;34859;51.608;11.462;2022-09-30T10:45:38;13.60;99.90
49042;DHT22;34859;51.608;11.462;2022-09-30T10:48:26;13.70;99.90
49042;DHT22;34859;51.608;11.462;2022-09-30T10:51:29;13.80;99.90
49042;DHT22;34859;51.608;11.462;2022-09-30T11:00:13;13.80;99.90
49042;DHT22;34859;51.608;11.462;2022-09-30T11:03:12;13.90;99.90
49042;DHT22;34859;51.608;11.462;2022-09-30T11:05:58;14.00;99.90
49042;DHT22;34859;51.608;11.462;2022-09-30T11:11:53;14.30;99.90
49042;DHT22;34859;51.608;11.462;2022-09-30T11:20:42;14.40;99.90
49042;DHT22;34859;51.608;11.462;2022-09-30T11:26:37;14.40;99.90
49042;DHT22;34859;51.608;11.462;2022-09-30T11:32:38;14.40;99.90
49042;DHT22;34859;51.608;11.462;2022-09-30T11:41:45;14.30;99.90
49042;DHT22;34859;51.608;11.462;2022-09-30T11:44:36;14.30;99.90
49042;DHT22;34859;51.608;11.462;2022-09-30T11:50:31;14.40;99.90
49042;DHT22;34859;51.608;11.462;2022-09-30T11:59:11;14.60;99.90
49042;DHT22;34859;51.608;11.462;2022-09-30T12:01:59;14.70;99.90
49042;DHT22;34859;51.608;11.462;2022-09-30T12:04:46;14.70;99.90
49042;DHT22;34859;51.608;11.462;2022-09-30T12:13:20;14.60;99.90
49042;DHT22;34859;51.608;11.462;2022-09-30T12:16:13;14.70;99.90
49042;DHT22;34859;51.608;11.462;2022-09-30T12:19:14;14.70;99.90
49042;DHT22;34859;51.608;11.462;2022-09-30T12:22:40;14.70;99.90
49042;DHT22;34859;51.608;11.462;2022-09-30T12:25:20;14.70;99.90
49042;DHT22;34859;51.608;11.462;2022-09-30T12:28:11;14.80;99.90
49042;DHT22;34859;51.608;11.462;2022-09-30T12:44:33;15.00;99.90
49042;DHT22;34859;51.608;11.462;2022-09-30T12:47:40;15.00;99.90
49042;DHT22;34859;51.608;11.462;2022-09-30T12:50:33;15.00;99.90
49042;DHT22;34859;51.608;11.462;2022-09-30T12:56:13;15.00;99.90
49042;DHT22;34859;51.608;11.462;2022-09-30T12:58:59;15.10;99.90
49042;DHT22;34859;51.608;11.462;2022-09-30T13:01:44;15.00;99.90
49042;DHT22;34859;51.608;11.462;2022-09-30T13:07:22;15.00;99.90
49042;DHT22;34859;51.608;11.462;2022-09-30T13:13:28;15.00;99.90
49042;DHT22;34859;51.608;11.462;2022-09-30T13:19:43;15.00;99.90
49042;DHT22;34859;51.608;11.462;2022-09-30T13:25:15;15.10;99.90
49042;DHT22;34859;51.608;11.462;2022-09-30T13:28:28;15.10;99.90
49042;DHT22;34859;51.608;11.462;2022-09-30T13:31:18;15.10;99.90
49042;DHT22;34859;51.608;11.462;2022-09-30T13:34:09;15.00;99.90
49042;DHT22;34859;51.608;11.462;2022-09-30T13:39:53;15.00;99.90
49042;DHT22;34859;51.608;11.462;2022-09-30T13:42:42;15.00;99.90
49042;DHT22;34859;51.608;11.462;2022-09-30T13:45:32;15.10;99.90
49042;DHT22;34859;51.608;11.462;2022-09-30T13:48:24;15.10;99.90
49042;DHT22;34859;51.608;11.462;2022-09-30T13:51:12;15.00;99.90
49042;DHT22;34859;51.608;11.462;2022-09-30T13:54:04;15.10;99.90
49042;DHT22;34859;51.608;11.462;2022-09-30T13:56:52;15.10;99.90
49042;DHT22;34859;51.608;11.462;2022-09-30T14:21:32;15.10;99.90
49042;DHT22;34859;51.608;11.462;2022-09-30T14:24:26;15.10;99.90
49042;DHT22;34859;51.608;11.462;2022-09-30T14:30:23;15.30;99.90
49042;DHT22;34859;51.608;11.462;2022-09-30T14:35:54;15.20;99.90
49042;DHT22;34859;51.608;11.462;2022-09-30T14:38:38;15.30;99.90
49042;DHT22;34859;51.608;11.462;2022-09-30T14:41:25;15.20;99.90
49042;DHT22;34859;51.608;11.462;2022-09-30T14:44:14;15.20;99.90
49042;DHT22;34859;51.608;11.462;2022-09-30T14:46:57;15.30;99.90
49042;DHT22;34859;51.608;11.462;2022-09-30T14:49:44;15.20;99.90
49042;DHT22;34859;51.608;11.462;2022-09-30T14:52:41;15.20;99.90
49042;DHT22;34859;51.608;11.462;2022-09-30T14:55:32;15.10;99.90
49042;DHT22;34859;51.608;11.462;2022-09-30T14:58:29;15.10;99.90
49042;DHT22;34859;51.608;11.462;2022-09-30T15:01:16;15.10;99.90
49042;DHT22;34859;51.608;11.462;2022-09-30T15:04:04;15.10;99.90
49042;DHT22;34859;51.608;11.462;2022-09-30T15:06:52;15.00;99.90
49042;DHT22;34859;51.608;11.462;2022-09-30T15:09:43;15.00;99.90
49042;DHT22;34859;51.608;11.462;2022-09-30T15:12:29;14.90;99.90
49042;DHT22;34859;51.608;11.462;2022-09-30T15:15:36;14.90;99.90
49042;DHT22;34859;51.608;11.462;2022-09-30T15:18:42;14.90;99.90
49042;DHT22;34859;51.608;11.462;2022-09-30T15:21:29;14.80;99.90
49042;DHT22;34859;51.608;11.462;2022-09-30T15:24:16;14.80;99.90
49042;DHT22;34859;51.608;11.462;2022-09-30T15:27:02;14.70;99.90
49042;DHT22;34859;51.608;11.462;2022-09-30T15:29:57;14.70;99.90
49042;DHT22;34859;51.608;11.462;2022-09-30T15:32:44;14.60;99.90
49042;DHT22;34859;51.608;11.462;2022-09-30T15:35:30;14.60;99.90
49042;DHT22;34859;51.608;11.462;2022-09-30T15:38:24;14.60;99.90
49042;DHT22;34859;51.608;11.462;2022-09-30T15:41:15;14.60;99.90
49042;DHT22;34859;51.608;11.462;2022-09-30T15:44:17;14.50;99.90
49042;DHT22;34859;51.608;11.462;2022-09-30T15:47:06;14.50;99.90
49042;DHT22;34859;51.608;11.462;2022-09-30T15:49:52;14.40;99.90
49042;DHT22;34859;51.608;11.462;2022-09-30T15:52:39;14.50;99.90
49042;DHT22;34859;51.608;11.462;2022-09-30T15:55:40;14.40;99.90
49042;DHT22;34859;51.608;11.462;2022-09-30T16:04:52;14.10;99.90
49042;DHT22;34859;51.608;11.462;2022-09-30T16:07:37;14.10;99.90
49042;DHT22;34859;51.608;11.462;2022-09-30T16:10:22;14.00;99.90
49042;DHT22;34859;51.608;11.462;2022-09-30T16:13:13;14.00;99.90
49042;DHT22;34859;51.608;11.462;2022-09-30T16:15:57;13.90;99.60
49042;DHT22;34859;51.608;11.462;2022-09-30T16:18:49;13.90;99.70
49042;DHT22;34859;51.608;11.462;2022-09-30T16:21:46;13.80;99.90
49042;DHT22;34859;51.608;11.462;2022-09-30T16:24:43;13.70;99.90
49042;DHT22;34859;51.608;11.462;2022-09-30T16:27:30;13.60;99.90
49042;DHT22;34859;51.608;11.462;2022-09-30T16:30:24;13.50;99.90
49042;DHT22;34859;51.608;11.462;2022-09-30T16:33:12;13.30;99.90
49042;DHT22;34859;51.608;11.462;2022-09-30T16:36:00;13.20;99.90
49042;DHT22;34859;51.608;11.462;2022-09-30T16:38:46;13.10;99.90
49042;DHT22;34859;51.608;11.462;2022-09-30T16:41:32;13.00;99.90
49042;DHT22;34859;51.608;11.462;2022-09-30T16:44:19;12.80;99.90
49042;DHT22;34859;51.608;11.462;2022-09-30T16:47:17;12.70;99.90
49042;DHT22;34859;51.608;11.462;2022-09-30T16:53:05;12.40;99.90
49042;DHT22;34859;51.608;11.462;2022-09-30T16:55:54;12.10;99.90
49042;DHT22;34859;51.608;11.462;2022-09-30T16:58:41;11.70;99.90
49042;DHT22;34859;51.608;11.462;2022-09-30T17:01:28;11.40;99.90
49042;DHT22;34859;51.608;11.462;2022-09-30T17:04:11;11.20;99.90
49042;DHT22;34859;51.608;11.462;2022-09-30T17:07:26;10.90;99.90
49042;DHT22;34859;51.608;11.462;2022-09-30T17:14:07;10.40;99.90
49042;DHT22;34859;51.608;11.462;2022-09-30T17:32:09;9.50;99.90
49042;DHT22;34859;51.608;11.462;2022-09-30T18:01:57;8.30;99.90
49042;DHT22;34859;51.608;11.462;2022-09-30T19:34:21;7.30;99.90
49042;DHT22;34859;51.608;11.462;2022-09-30T19:37:06;7.20;99.90
49042;DHT22;34859;51.608;11.462;2022-09-30T19:39:50;7.20;99.90
49042;DHT22;34859;51.608;11.462;2022-09-30T19:42:35;7.20;99.90
49042;DHT22;34859;51.608;11.462;2022-09-30T19:45:23;7.00;99.90
49042;DHT22;34859;51.608;11.462;2022-09-30T19:48:09;7.00;99.90
49042;DHT22;34859;51.608;11.462;2022-09-30T19:51:03;7.00;99.90
49042;DHT22;34859;51.608;11.462;2022-09-30T19:53:49;7.10;99.90
49042;DHT22;34859;51.608;11.462;2022-09-30T19:56:35;7.00;99.90
49042;DHT22;34859;51.608;11.462;2022-09-30T19:59:19;6.90;99.90
49042;DHT22;34859;51.608;11.462;2022-09-30T20:02:04;6.80;99.90
49042;DHT22;34859;51.608;11.462;2022-09-30T20:04:50;6.70;99.90
49042;DHT22;34859;51.608;11.462;2022-09-30T20:07:41;6.60;99.90
49042;DHT22;34859;51.608;11.462;2022-09-30T20:10:26;6.60;99.90
49042;DHT22;34859;51.608;11.462;2022-09-30T20:13:11;6.60;99.90
49042;DHT22;34859;51.608;11.462;2022-09-30T20:16:00;6.60;99.90
49042;DHT22;34859;51.608;11.462;2022-09-30T20:18:45;6.60;99.90
49042;DHT22;34859;51.608;11.462;2022-09-30T20:21:31;6.60;99.90
49042;DHT22;34859;51.608;11.462;2022-09-30T20:24:17;6.50;99.90
49042;DHT22;34859;51.608;11.462;2022-09-30T20:27:02;6.50;99.90
49042;DHT22;34859;51.608;11.462;2022-09-30T20:29:47;6.50;99.90
49042;DHT22;34859;51.608;11.462;2022-09-30T20:32:31;6.50;99.90
49042;DHT22;34859;51.608;11.462;2022-09-30T20:35:16;6.50;99.90
49042;DHT22;34859;51.608;11.462;2022-09-30T20:38:01;6.50;99.90
49042;DHT22;34859;51.608;11.462;2022-09-30T20:40:45;6.50;99.90
49042;DHT22;34859;51.608;11.462;2022-09-30T20:43:31;6.50;99.90
49042;DHT22;34859;51.608;11.462;2022-09-30T20:46:40;6.50;99.90
49042;DHT22;34859;51.608;11.462;2022-09-30T20:50:03;6.40;99.90
49042;DHT22;34859;51.608;11.462;2022-09-30T20:52:49;6.40;99.90
49042;DHT22;34859;51.608;11.462;2022-09-30T20:55:51;6.30;99.90
49042;DHT22;34859;51.608;11.462;2022-09-30T20:59:17;6.30;99.90
49042;DHT22;34859;51.608;11.462;2022-09-30T21:02:29;6.20;99.90
49042;DHT22;34859;51.608;11.462;2022-09-30T21:05:23;6.10;99.90
49042;DHT22;34859;51.608;11.462;2022-09-30T21:08:08;6.10;99.90
49042;DHT22;34859;51.608;11.462;2022-09-30T21:10:52;6.10;99.90
49042;DHT22;34859;51.608;11.462;2022-09-30T21:13:45;6.20;99.90
49042;DHT22;34859;51.608;11.462;2022-09-30T21:16:30;6.00;99.90
49042;DHT22;34859;51.608;11.462;2022-09-30T21:19:14;5.90;99.90
49042;DHT22;34859;51.608;11.462;2022-09-30T21:22:00;5.80;99.90
49042;DHT22;34859;51.608;11.462;2022-09-30T21:25:02;5.80;99.90
49042;DHT22;34859;51.608;11.462;2022-09-30T21:27:51;5.70;99.90
49042;DHT22;34859;51.608;11.462;2022-09-30T21:31:13;5.70;99.90
49042;DHT22;34859;51.608;11.462;2022-09-30T21:33:58;5.60;99.90
49042;DHT22;34859;51.608;11.462;2022-09-30T21:36:43;5.50;99.90
49042;DHT22;34859;51.608;11.462;2022-09-30T21:39:29;5.40;99.90
49042;DHT22;34859;51.608;11.462;2022-09-30T21:42:13;5.40;99.90
49042;DHT22;34859;51.608;11.462;2022-09-30T21:45:00;5.40;99.90
49042;DHT22;34859;51.608;11.462;2022-09-30T21:47:45;5.40;99.90
49042;DHT22;34859;51.608;11.462;2022-09-30T21:50:33;5.30;99.90
49042;DHT22;34859;51.608;11.462;2022-09-30T21:53:51;5.20;99.90
49042;DHT22;34859;51.608;11.462;2022-09-30T21:56:41;5.20;99.90
49042;DHT22;34859;51.608;11.462;2022-09-30T22:00:02;5.20;99.90
49042;DHT22;34859;51.608;11.462;2022-09-30T22:03:16;5.20;99.90
49042;DHT22;34859;51.608;11.462;2022-09-30T22:06:52;5.20;99.90
49042;DHT22;34859;51.608;11.462;2022-09-30T22:10:19;5.20;99.90
49042;DHT22;34859;51.608;11.462;2022-09-30T22:13:54;5.20;99.90
49042;DHT22;34859;51.608;11.462;2022-09-30T22:17:37;5.10;99.90
49042;DHT22;34859;51.608;11.462;2022-09-30T22:21:04;5.00;99.90
49042;DHT22;34859;51.608;11.462;2022-09-30T22:28:52;5.10;99.90
49042;DHT22;34859;51.608;11.462;2022-09-30T22:32:38;5.30;99.90
49042;DHT22;34859;51.608;11.462;2022-09-30T22:36:22;5.10;99.90
49042;DHT22;34859;51.608;11.462;2022-09-30T23:14:32;4.50;99.90
49042;DHT22;34859;51.608;11.462;2022-09-30T23:33:35;4.30;99.90
